Time;durP1;ratioP1;P1;durP2;ratioP2;P2;SDS_P1;SDS_P2;PMS_P1;PMS_P2;Temp;Humidity;BMP_temperature;BMP_pressure;BME280_temperature;BME280_humidity;BME280_pressure;Samples;Min_cycle;Max_cycle;Signal;HPM_P1;HPM_P2
2024/04/22 00:02:05;;;;;;;3.25;1.98;;;;;;;5.92;57.43;101685.75;5365789;26;20006;-47
2024/04/22 00:04:33;;;;;;;10.88;2.70;;;;;;;5.92;57.68;101688.34;5363570;26;20009;-47
2024/04/22 00:07:00;;;;;;;7.57;3.00;;;;;;;5.90;57.67;101689.97;5361479;26;20000;-45
2024/04/22 00:09:27;;;;;;;5.15;2.58;;;;;;;5.91;57.72;101685.69;5369336;26;20103;-48
2024/04/22 00:11:53;;;;;;;8.20;2.30;;;;;;;5.90;57.79;101684.84;5357355;26;20004;-49
2024/04/22 00:14:20;;;;;;;2.53;2.33;;;;;;;5.89;57.98;101690.81;5365187;26;20070;-50
2024/04/22 00:16:47;;;;;;;3.97;2.50;;;;;;;5.88;57.87;101691.59;5357967;26;20805;-46
2024/04/22 00:19:14;;;;;;;4.60;1.95;;;;;;;5.86;58.01;101682.94;5358464;26;20004;-51
2024/04/22 00:21:41;;;;;;;6.93;2.60;;;;;;;5.84;58.28;101679.41;5353138;26;20849;-48
2024/04/22 00:24:07;;;;;;;3.55;2.47;;;;;;;5.83;58.28;101685.38;5364468;26;20454;-48
2024/04/22 00:26:34;;;;;;;5.78;2.75;;;;;;;5.80;58.32;101674.97;5370818;26;20012;-47
2024/04/22 00:29:01;;;;;;;9.23;2.60;;;;;;;5.79;58.38;101676.66;5359999;26;20106;-46
2024/04/22 00:31:27;;;;;;;4.95;2.60;;;;;;;5.78;58.79;101676.59;5330626;26;20012;-47
2024/04/22 00:33:54;;;;;;;8.55;2.85;;;;;;;5.78;58.79;101692.03;5330739;26;20041;-45
2024/04/22 00:36:21;;;;;;;5.40;2.00;;;;;;;5.76;58.99;101675.63;5365509;26;20024;-47
2024/04/22 00:38:48;;;;;;;6.85;2.35;;;;;;;5.75;59.18;101673.88;5369751;26;20012;-45
2024/04/22 00:41:15;;;;;;;4.22;2.28;;;;;;;5.75;59.01;101673.88;5366249;26;20469;-49
2024/04/22 00:43:41;;;;;;;2.58;1.88;;;;;;;5.73;59.36;101670.34;5364908;26;20008;-46
2024/04/22 00:46:08;;;;;;;5.55;2.72;;;;;;;5.73;59.33;101662.66;5368675;26;20456;-48
2024/04/22 00:48:35;;;;;;;12.35;2.75;;;;;;;5.73;59.39;101654.94;5361505;26;19996;-50
2024/04/22 00:51:03;;;;;;;7.75;2.50;;;;;;;5.72;59.51;101658.31;5346996;26;20836;-45
2024/04/22 00:53:31;;;;;;;4.07;1.80;;;;;;;5.72;59.82;101655.75;5368847;26;20004;-46
2024/04/22 00:55:58;;;;;;;6.68;2.58;;;;;;;5.72;59.77;101655.75;5359057;26;20023;-48
2024/04/22 00:58:26;;;;;;;7.68;2.22;;;;;;;5.71;59.81;101647.16;5351298;26;20001;-46
2024/04/22 01:00:56;;;;;;;5.88;2.85;;;;;;;5.71;59.87;101651.44;5369748;26;20023;-45
2024/04/22 01:03:23;;;;;;;5.50;2.35;;;;;;;5.71;60.23;101647.16;5353388;26;20012;-46
2024/04/22 01:05:51;;;;;;;6.30;3.42;;;;;;;5.71;59.93;101641.16;5360115;26;20341;-47
2024/04/22 01:08:18;;;;;;;4.63;2.42;;;;;;;5.72;60.26;101637.75;5362163;26;20078;-48
2024/04/22 01:10:45;;;;;;;6.88;2.67;;;;;;;5.71;60.26;101636.00;5363325;26;20001;-49
2024/04/22 01:13:13;;;;;;;6.65;2.63;;;;;;;5.72;60.43;101645.47;5366279;26;20008;-47
2024/04/22 01:15:39;;;;;;;5.65;2.38;;;;;;;5.71;60.43;101630.88;5376318;26;20011;-49
2024/04/22 01:18:06;;;;;;;11.43;2.38;;;;;;;5.71;60.62;101638.56;5347192;26;20023;-50
2024/04/22 01:20:33;;;;;;;3.45;2.22;;;;;;;5.71;60.70;101636.00;5370663;26;20517;-47
2024/04/22 01:23:00;;;;;;;7.70;1.98;;;;;;;5.71;60.79;101641.16;5363170;26;20004;-49
2024/04/22 01:25:30;;;;;;;5.28;2.58;;;;;;;5.71;60.97;101647.16;5362819;26;20079;-48
2024/04/22 01:27:57;;;;;;;3.00;2.53;;;;;;;5.71;60.75;101646.28;5356002;26;20012;-52
2024/04/22 01:30:24;;;;;;;4.47;2.35;;;;;;;5.70;60.91;101650.53;5360311;26;20017;-48
2024/04/22 01:32:50;;;;;;;7.05;2.95;;;;;;;5.71;61.22;101642.00;5367211;26;20004;-48
2024/04/22 01:35:17;;;;;;;2.95;2.45;;;;;;;5.71;61.32;101636.00;5341531;26;20028;-47
2024/04/22 01:37:44;;;;;;;5.35;2.05;;;;;;;5.69;61.54;101624.75;5356057;26;20494;-48
2024/04/22 01:40:12;;;;;;;6.97;2.70;;;;;;;5.69;61.65;101627.34;5369494;26;20370;-52
2024/04/22 01:42:39;;;;;;;8.98;2.35;;;;;;;5.70;61.61;101623.94;5354657;26;19997;-50
2024/04/22 01:45:06;;;;;;;5.22;2.92;;;;;;;5.71;61.66;101636.00;5321591;26;20001;-51
2024/04/22 01:47:33;;;;;;;3.03;2.50;;;;;;;5.71;61.85;101634.28;5359307;26;20086;-47
2024/04/22 01:49:59;;;;;;;7.68;2.83;;;;;;;5.71;61.96;101631.72;5360951;26;20028;-50
2024/04/22 01:52:27;;;;;;;3.35;2.63;;;;;;;5.72;61.79;101624.91;5374645;26;20007;-49
2024/04/22 01:54:54;;;;;;;4.85;2.65;;;;;;;5.73;62.17;101626.66;5364115;26;20011;-46
2024/04/22 01:57:21;;;;;;;5.68;1.13;;;;;;;5.72;62.12;101627.47;5368156;26;20407;-50
2024/04/22 01:59:47;;;;;;;6.60;2.33;;;;;;;5.72;62.06;101632.63;5364627;26;20020;-47
2024/04/22 02:02:14;;;;;;;3.72;2.45;;;;;;;5.71;62.02;101628.28;5361952;26;20012;-46
2024/04/22 02:04:41;;;;;;;3.35;2.10;;;;;;;5.71;62.20;101636.00;5330216;26;20017;-47
2024/04/22 02:07:08;;;;;;;5.65;2.63;;;;;;;5.72;62.15;101622.34;5345629;26;20000;-47
2024/04/22 02:09:34;;;;;;;5.85;2.53;;;;;;;5.73;62.22;101618.94;5362831;26;20019;-49
2024/04/22 02:12:01;;;;;;;5.15;2.42;;;;;;;5.73;62.16;101618.94;5361604;26;20000;-46
2024/04/22 02:14:28;;;;;;;7.80;2.65;;;;;;;5.75;62.23;101619.91;5360368;26;20069;-47
2024/04/22 02:16:55;;;;;;;4.68;3.03;;;;;;;5.76;62.23;101616.50;5368049;26;20004;-49
2024/04/22 02:19:21;;;;;;;6.13;2.60;;;;;;;5.76;62.40;101630.25;5369666;26;20001;-49
2024/04/22 02:21:49;;;;;;;3.75;2.17;;;;;;;5.75;62.16;101625.91;5357361;26;20015;-47
2024/04/22 02:24:16;;;;;;;7.22;0.82;;;;;;;5.77;62.01;101631.09;5350578;26;20480;-49
2024/04/22 02:26:43;;;;;;;6.55;2.47;;;;;;;5.77;62.25;101623.41;5323600;26;20008;-46
2024/04/22 02:29:09;;;;;;;9.88;2.50;;;;;;;5.79;62.63;101629.50;5365460;26;20071;-49
2024/04/22 02:31:36;;;;;;;5.28;2.33;;;;;;;5.79;62.60;101619.22;5359384;26;20018;-46
2024/04/22 02:34:03;;;;;;;5.20;2.20;;;;;;;5.79;62.43;101625.25;5361681;26;20004;-45
2024/04/22 02:36:30;;;;;;;3.25;1.95;;;;;;;5.81;62.40;101627.84;5362735;26;20372;-46
2024/04/22 02:38:57;;;;;;;10.65;2.63;;;;;;;5.82;62.27;101627.06;5369896;26;20042;-47
2024/04/22 02:41:24;;;;;;;6.50;2.80;;;;;;;5.80;62.53;101615.81;5356716;26;20716;-46
2024/04/22 02:43:50;;;;;;;5.22;2.63;;;;;;;5.82;62.59;101618.47;5363769;26;20012;-47
2024/04/22 02:46:17;;;;;;;6.10;2.85;;;;;;;5.81;62.59;101622.72;5364203;26;20015;-47
2024/04/22 02:48:44;;;;;;;11.50;2.88;;;;;;;5.82;62.67;101623.59;5356486;26;20019;-46
2024/04/22 02:51:11;;;;;;;3.75;2.20;;;;;;;5.83;62.76;101621.09;5364198;26;20359;-45
2024/04/22 02:53:38;;;;;;;4.85;2.80;;;;;;;5.82;62.76;101619.34;5351433;26;20017;-47
2024/04/22 02:56:05;;;;;;;4.72;2.17;;;;;;;5.83;62.65;101617.63;5354878;26;20012;-49
2024/04/22 02:58:32;;;;;;;3.60;2.65;;;;;;;5.81;62.44;101612.41;5366296;26;20004;-48
2024/04/22 03:00:58;;;;;;;7.55;3.15;;;;;;;5.82;62.51;101608.16;5361379;26;20009;-47
2024/04/22 03:03:25;;;;;;;7.78;3.50;;;;;;;5.82;62.85;101618.47;5349824;26;20019;-48
2024/04/22 03:05:56;;;;;;;3.70;2.90;;;;;;;5.82;62.86;101609.06;5359262;26;20004;-45
2024/04/22 03:08:23;;;;;;;6.03;3.50;;;;;;;5.82;62.82;101614.19;5364909;26;20008;-48
2024/04/22 03:10:50;;;;;;;5.60;2.67;;;;;;;5.82;62.93;101609.06;5361666;26;20406;-49
2024/04/22 03:13:16;;;;;;;4.72;2.35;;;;;;;5.84;62.68;101602.28;5341911;26;20074;-49
2024/04/22 03:15:43;;;;;;;5.40;2.83;;;;;;;5.84;62.79;101607.41;5357228;26;20024;-46
2024/04/22 03:18:10;;;;;;;6.28;2.42;;;;;;;5.84;62.77;101602.28;5356503;26;20039;-46
2024/04/22 03:20:37;;;;;;;5.35;2.92;;;;;;;5.85;62.65;101609.19;5367548;26;20004;-48
2024/04/22 03:23:04;;;;;;;2.00;1.20;;;;;;;5.85;62.87;101598.91;5357635;26;20502;-51
2024/04/22 03:25:30;;;;;;;5.43;2.50;;;;;;;5.88;62.67;101606.72;5371853;26;20090;-47
2024/04/22 03:27:57;;;;;;;6.78;2.67;;;;;;;5.88;62.89;101599.00;5362169;26;21020;-48
2024/04/22 03:30:24;;;;;;;7.45;3.03;;;;;;;5.89;62.66;101593.06;5360697;26;19996;-47
2024/04/22 03:32:51;;;;;;;6.38;3.80;;;;;;;5.90;62.82;101591.38;5351876;26;20012;-51
2024/04/22 03:35:18;;;;;;;5.03;2.92;;;;;;;5.89;62.85;101590.50;5360456;26;20052;-47
2024/04/22 03:37:45;;;;;;;4.03;3.20;;;;;;;5.90;62.81;101594.81;5363957;26;20019;-48
2024/04/22 03:40:11;;;;;;;11.73;4.10;;;;;;;5.92;62.66;101594.88;5364065;26;20010;-50
2024/04/22 03:42:38;;;;;;;5.35;3.28;;;;;;;5.91;62.85;101587.97;5364822;26;20461;-46
2024/04/22 03:45:05;;;;;;;6.95;2.88;;;;;;;5.91;62.77;101588.84;5371786;26;20014;-47
2024/04/22 03:50:19;;;;;;;5.00;2.53;;;;;;;5.91;62.74;101596.56;5366991;26;20037;-49
2024/04/22 03:52:46;;;;;;;8.50;3.65;;;;;;;5.91;62.91;101588.84;5351716;26;20563;-49
2024/04/22 03:55:12;;;;;;;3.63;3.33;;;;;;;5.92;62.92;101580.31;5351033;26;20004;-48
2024/04/22 03:57:39;;;;;;;10.23;4.18;;;;;;;5.94;63.03;101576.97;5357786;26;19996;-50
2024/04/22 04:00:06;;;;;;;6.53;2.88;;;;;;;5.95;62.80;101579.59;5364772;26;20012;-49
2024/04/22 04:02:33;;;;;;;5.80;2.80;;;;;;;5.96;62.92;101575.31;5365047;26;20004;-47
2024/04/22 04:05:00;;;;;;;11.85;3.47;;;;;;;5.96;63.14;101575.31;5353494;26;20013;-46
2024/04/22 04:07:27;;;;;;;3.85;2.53;;;;;;;5.96;62.93;101580.44;5351463;26;20027;-46
2024/04/22 04:09:54;;;;;;;7.95;3.30;;;;;;;5.95;63.33;101579.59;5365798;26;20012;-51
2024/04/22 04:12:20;;;;;;;5.32;2.40;;;;;;;5.94;63.27;101566.66;5363030;26;20042;-53
2024/04/22 04:14:47;;;;;;;6.43;3.47;;;;;;;5.95;63.36;101563.28;5353858;26;20091;-49
2024/04/22 04:17:14;;;;;;;3.67;2.40;;;;;;;5.95;63.39;101564.16;5359412;26;20148;-46
2024/04/22 04:19:41;;;;;;;7.32;3.08;;;;;;;5.96;63.45;101554.72;5357737;26;20055;-48
2024/04/22 04:22:07;;;;;;;4.65;2.80;;;;;;;5.97;63.51;101556.47;5366079;26;20000;-53
2024/04/22 04:24:34;;;;;;;9.30;3.53;;;;;;;5.95;63.42;101558.13;5351637;26;20049;-49
2024/04/22 04:27:01;;;;;;;8.57;1.35;;;;;;;5.95;63.65;101552.97;5355496;26;20609;-50
2024/04/22 04:29:28;;;;;;;4.60;3.08;;;;;;;5.95;63.75;101550.41;5368021;26;20004;-49
2024/04/22 04:31:55;;;;;;;3.92;3.08;;;;;;;5.95;63.87;101563.28;5325079;26;20009;-50
2024/04/22 04:34:22;;;;;;;8.80;2.58;;;;;;;5.94;63.88;101559.81;5339686;26;20009;-46
2024/04/22 04:36:48;;;;;;;10.32;3.65;;;;;;;5.95;63.99;101555.56;5350773;26;20011;-46
2024/04/22 04:39:15;;;;;;;5.10;2.55;;;;;;;5.95;64.28;101563.28;5319158;26;20477;-52
2024/04/22 04:41:42;;;;;;;7.25;2.33;;;;;;;5.94;64.24;101569.25;5371766;26;20090;-49
2024/04/22 04:44:09;;;;;;;4.43;3.42;;;;;;;5.92;64.37;101564.88;5367468;26;20009;-50
2024/04/22 04:46:35;;;;;;;4.72;2.88;;;;;;;5.92;64.43;101569.19;5355417;26;20082;-48
2024/04/22 04:49:02;;;;;;;8.57;4.40;;;;;;;5.91;64.56;101565.72;5369162;26;20216;-49
2024/04/22 04:51:29;;;;;;;2.95;2.55;;;;;;;5.94;64.49;101561.53;5360082;26;20012;-47
2024/04/22 04:53:56;;;;;;;6.18;2.60;;;;;;;5.93;64.54;101560.63;5369386;26;20032;-50
2024/04/22 04:56:22;;;;;;;6.10;2.22;;;;;;;5.94;64.75;101558.94;5363525;26;20016;-46
2024/04/22 04:58:52;;;;;;;5.95;3.45;;;;;;;5.95;64.57;101559.03;5367245;26;20000;-47
2024/04/22 05:01:19;;;;;;;8.05;2.58;;;;;;;5.96;64.44;101554.72;5353182;26;20004;-47
2024/04/22 05:03:46;;;;;;;4.95;2.33;;;;;;;5.96;64.86;101544.44;5363400;26;20090;-47
2024/04/22 05:06:13;;;;;;;11.23;2.85;;;;;;;5.96;64.83;101553.06;5342047;26;20015;-48
2024/04/22 05:08:40;;;;;;;9.00;2.00;;;;;;;5.97;64.86;101551.34;5365120;26;20000;-46
2024/04/22 05:11:07;;;;;;;5.78;2.72;;;;;;;5.98;65.08;101547.97;5360444;26;20004;-46
2024/04/22 05:13:34;;;;;;;10.82;2.80;;;;;;;6.00;64.94;101551.47;5363457;26;20008;-47
2024/04/22 05:16:01;;;;;;;7.75;3.78;;;;;;;6.01;65.06;101537.81;5358805;26;20012;-47
2024/04/22 05:18:27;;;;;;;4.38;2.33;;;;;;;6.03;65.25;101543.88;5362774;26;20329;-44
2024/04/22 05:20:54;;;;;;;5.47;2.38;;;;;;;6.04;65.16;101543.97;5369531;26;20004;-46
2024/04/22 05:23:21;;;;;;;4.93;2.92;;;;;;;6.07;64.96;101547.47;5364809;26;20008;-49
2024/04/22 05:25:48;;;;;;;7.72;2.85;;;;;;;6.09;65.21;101538.13;5363610;26;20077;-47
2024/04/22 05:28:15;;;;;;;4.72;2.83;;;;;;;6.09;65.04;101533.00;5360047;26;20011;-48
2024/04/22 05:30:42;;;;;;;5.03;2.75;;;;;;;6.12;65.17;101535.69;5361613;26;20019;-47
2024/04/22 05:36:14;;;;;;;9.82;2.20;;;;;;;6.18;65.07;101530.75;5360684;26;20012;-47
2024/04/22 05:38:42;;;;;;;5.85;2.47;;;;;;;6.21;65.15;101530.91;5364849;26;20563;-47
2024/04/22 05:41:10;;;;;;;8.32;3.97;;;;;;;6.24;65.45;101530.13;5359949;26;20001;-49
2024/04/22 05:43:37;;;;;;;5.00;2.70;;;;;;;6.26;65.20;101534.53;5361293;26;20005;-45
2024/04/22 05:46:04;;;;;;;8.30;2.55;;;;;;;6.28;65.28;101542.28;5364644;26;20031;-47
2024/04/22 05:48:32;;;;;;;5.30;3.33;;;;;;;6.30;65.49;101540.69;5364687;26;20792;-47
2024/04/22 05:50:59;;;;;;;12.68;3.13;;;;;;;6.32;65.53;101541.63;5359636;26;20081;-45
2024/04/22 05:53:26;;;;;;;4.18;3.75;;;;;;;6.34;65.44;101539.09;5359546;26;20012;-45
2024/04/22 05:55:53;;;;;;;7.93;3.65;;;;;;;6.35;65.75;101544.28;5366490;26;20008;-47
2024/04/22 05:58:19;;;;;;;5.88;2.65;;;;;;;6.38;65.71;101541.84;5360454;26;20004;-45
2024/04/22 06:00:46;;;;;;;5.00;2.58;;;;;;;6.41;65.54;101539.41;5365798;26;20027;-45
2024/04/22 06:03:13;;;;;;;5.18;3.28;;;;;;;6.45;65.72;101534.38;5362919;26;20049;-47
2024/04/22 06:05:40;;;;;;;3.63;2.75;;;;;;;6.47;65.58;101533.59;5366104;26;20012;-46
2024/04/22 06:08:07;;;;;;;9.02;2.55;;;;;;;6.52;65.75;101531.22;5352295;26;20080;-46
2024/04/22 06:10:33;;;;;;;4.15;2.50;;;;;;;6.55;65.90;101533.88;5369247;26;20004;-47
2024/04/22 06:13:01;;;;;;;4.53;2.55;;;;;;;6.57;65.55;101529.69;5357759;26;20025;-48
2024/04/22 06:15:28;;;;;;;7.28;3.17;;;;;;;6.62;65.43;101535.88;5366201;26;20018;-49
2024/04/22 06:17:54;;;;;;;9.30;3.38;;;;;;;6.64;65.57;101531.69;5367423;26;20000;-47
2024/04/22 06:20:21;;;;;;;9.68;2.80;;;;;;;6.67;65.81;101528.34;5364950;26;20012;-47
2024/04/22 06:22:48;;;;;;;6.13;2.60;;;;;;;6.68;65.68;101530.97;5364373;26;20008;-45
2024/04/22 06:25:15;;;;;;;7.88;2.78;;;;;;;6.68;65.77;101532.66;5351952;26;20001;-49
2024/04/22 06:27:44;;;;;;;5.93;2.58;;;;;;;6.68;65.59;101525.81;5352227;26;20008;-46
2024/04/22 06:30:11;;;;;;;7.88;2.97;;;;;;;6.71;65.95;101519.00;5363005;26;20052;-46
2024/04/22 06:32:38;;;;;;;3.40;2.28;;;;;;;6.69;65.80;101518.97;5359419;26;20037;-45
2024/04/22 06:35:05;;;;;;;3.30;2.92;;;;;;;6.71;65.67;101519.00;5362097;26;20052;-47
2024/04/22 06:37:32;;;;;;;6.53;3.08;;;;;;;6.72;65.39;101513.06;5363926;26;20015;-46
2024/04/22 06:39:58;;;;;;;5.38;2.55;;;;;;;6.76;65.70;101514.94;5357578;26;20000;-47
2024/04/22 06:42:25;;;;;;;5.35;2.50;;;;;;;6.78;65.59;101515.84;5356551;26;20016;-47
2024/04/22 06:44:52;;;;;;;6.03;2.92;;;;;;;6.79;65.74;101510.75;5360282;26;20086;-49
2024/04/22 06:47:19;;;;;;;4.80;3.05;;;;;;;6.81;65.58;101514.28;5364684;26;20443;-52
2024/04/22 06:49:46;;;;;;;4.15;2.60;;;;;;;6.82;65.73;101504.81;5360131;26;20141;-49
2024/04/22 06:52:13;;;;;;;4.75;3.50;;;;;;;6.86;65.85;101500.69;5365295;26;20031;-48
2024/04/22 06:54:39;;;;;;;4.05;2.67;;;;;;;6.87;65.61;101505.88;5363633;26;20043;-48
2024/04/22 06:57:06;;;;;;;6.43;3.10;;;;;;;6.88;65.67;101505.06;5360860;26;20032;-50
2024/04/22 06:59:33;;;;;;;6.53;3.20;;;;;;;6.93;65.63;101508.66;5357314;26;20019;-48
2024/04/22 07:02:00;;;;;;;8.38;3.15;;;;;;;6.98;65.51;101497.66;5361633;26;20000;-48
2024/04/22 07:04:31;;;;;;;3.67;2.88;;;;;;;7.02;65.32;101496.94;5359805;26;20072;-48
2024/04/22 07:06:58;;;;;;;5.65;2.97;;;;;;;7.03;65.55;101498.72;5340984;26;20005;-46
2024/04/22 07:09:26;;;;;;;6.90;3.75;;;;;;;7.03;65.49;101488.41;5338864;26;20019;-46
2024/04/22 07:11:52;;;;;;;4.35;3.42;;;;;;;7.02;65.41;101481.47;5350237;26;20019;-45
2024/04/22 07:14:22;;;;;;;4.13;1.63;;;;;;;7.05;65.09;101484.16;5359515;26;20448;-46
2024/04/22 07:16:53;;;;;;;5.95;3.20;;;;;;;7.05;65.11;101484.16;5361525;26;20353;-46
2024/04/22 07:19:21;;;;;;;8.10;3.63;;;;;;;7.05;65.24;101471.28;5356833;26;20074;-45
2024/04/22 07:21:48;;;;;;;5.85;3.13;;;;;;;7.05;65.21;101476.44;5360834;26;20012;-50
2024/04/22 07:24:14;;;;;;;8.35;3.25;;;;;;;7.07;64.97;101472.22;5365204;26;20012;-48
2024/04/22 07:26:41;;;;;;;3.95;3.38;;;;;;;7.09;65.16;101473.13;5367747;26;20011;-47
2024/04/22 07:29:08;;;;;;;5.55;3.10;;;;;;;7.12;65.13;101462.09;5364481;26;20023;-46
2024/04/22 07:31:35;;;;;;;6.78;3.08;;;;;;;7.17;65.03;101469.13;5361694;26;20014;-47
2024/04/22 07:34:02;;;;;;;6.47;3.22;;;;;;;7.23;65.26;101465.88;5361930;26;20020;-45
2024/04/22 07:36:40;;;;;;;7.60;3.15;;;;;;;7.26;64.91;101472.88;5348915;26;20021;-49
2024/04/22 07:39:08;;;;;;;6.53;3.47;;;;;;;7.30;64.88;101469.56;5356437;26;20015;-46
2024/04/22 07:41:35;;;;;;;7.85;3.45;;;;;;;7.32;64.86;101463.63;5357892;26;20004;-49
2024/04/22 07:44:03;;;;;;;8.02;4.93;;;;;;;7.35;65.02;101465.44;5360362;26;20007;-46
2024/04/22 07:46:30;;;;;;;6.93;3.83;;;;;;;7.38;64.83;101468.13;5361852;26;20012;-45
2024/04/22 07:48:57;;;;;;;7.65;3.53;;;;;;;7.40;64.96;101466.44;5362814;26;20049;-48
2024/04/22 07:51:24;;;;;;;5.40;3.60;;;;;;;7.39;65.07;101467.28;5342940;26;20035;-48
2024/04/22 07:53:53;;;;;;;7.65;4.07;;;;;;;7.38;64.73;101459.50;5359381;26;20086;-45
2024/04/22 07:56:21;;;;;;;8.07;3.55;;;;;;;7.40;65.31;101461.28;5365915;26;20077;-48
2024/04/22 07:58:48;;;;;;;6.07;2.05;;;;;;;7.43;65.25;101463.13;5367801;26;20543;-46
2024/04/22 08:01:15;;;;;;;6.60;4.15;;;;;;;7.43;65.19;101458.81;5366265;26;20453;-47
2024/04/22 08:03:42;;;;;;;7.18;3.00;;;;;;;7.45;65.24;101457.19;5362304;26;20023;-45
2024/04/22 08:06:16;;;;;;;6.43;2.95;;;;;;;7.39;64.91;101464.72;5365622;26;20000;-46
2024/04/22 08:08:43;;;;;;;6.10;3.50;;;;;;;7.31;65.09;101464.47;5360817;26;20063;-46
2024/04/22 08:11:10;;;;;;;7.45;3.42;;;;;;;7.31;65.02;101463.56;5371465;26;20005;-45
2024/04/22 08:13:36;;;;;;;9.52;4.18;;;;;;;7.30;65.20;101460.13;5361031;26;20012;-44
2024/04/22 08:16:04;;;;;;;6.38;3.38;;;;;;;7.26;65.36;101470.28;5371518;26;20010;-46
2024/04/22 08:18:33;;;;;;;6.65;4.30;;;;;;;7.27;65.63;101466.88;5355516;26;20011;-47
2024/04/22 08:21:01;;;;;;;5.68;3.90;;;;;;;7.33;65.58;101467.09;5364428;26;20016;-46
2024/04/22 08:23:30;;;;;;;11.23;2.35;;;;;;;7.40;65.35;101469.03;5370432;26;20412;-48
2024/04/22 08:25:56;;;;;;;9.32;3.85;;;;;;;7.44;65.59;101473.47;5370113;26;20004;-48
2024/04/22 08:28:24;;;;;;;9.30;3.72;;;;;;;7.51;65.58;101468.50;5370267;26;20024;-48
2024/04/22 08:31:00;;;;;;;7.13;3.78;;;;;;;7.51;65.43;101465.94;5369803;26;20876;-45
2024/04/22 08:33:27;;;;;;;9.75;4.72;;;;;;;7.50;65.10;101475.38;5369312;26;20016;-46
2024/04/22 08:35:54;;;;;;;6.28;2.28;;;;;;;7.52;65.38;101468.56;5360961;26;20407;-46
2024/04/22 08:38:20;;;;;;;9.13;4.15;;;;;;;7.55;65.26;101468.69;5362813;26;20012;-46
2024/04/22 08:40:47;;;;;;;7.90;4.13;;;;;;;7.57;65.36;101461.00;5362008;26;20465;-47
2024/04/22 08:43:16;;;;;;;6.57;3.63;;;;;;;7.50;65.35;101464.19;5358970;26;20011;-48
2024/04/22 08:45:44;;;;;;;6.15;3.53;;;;;;;7.49;65.43;101462.44;5369865;26;20027;-49
2024/04/22 08:48:12;;;;;;;5.03;3.20;;;;;;;7.51;65.24;101459.09;5370903;26;20032;-49
2024/04/22 08:50:40;;;;;;;9.85;4.25;;;;;;;7.54;65.47;101460.88;5370050;26;20000;-47
2024/04/22 08:53:08;;;;;;;6.55;4.43;;;;;;;7.57;65.61;101455.84;5370832;26;19997;-48
2024/04/22 08:55:36;;;;;;;6.75;4.25;;;;;;;7.59;65.54;101455.06;5347796;26;20008;-47
2024/04/22 08:58:04;;;;;;;7.15;4.30;;;;;;;7.62;65.57;101459.44;5369873;26;20018;-47
2024/04/22 09:00:31;;;;;;;8.57;4.57;;;;;;;7.68;65.69;101457.06;5362252;26;20099;-49
2024/04/22 09:02:58;;;;;;;8.05;3.70;;;;;;;7.72;65.90;101448.59;5381162;26;20015;-49
2024/04/22 09:05:25;;;;;;;9.13;4.63;;;;;;;7.79;65.83;101453.91;5359515;26;20016;-46
2024/04/22 09:07:53;;;;;;;8.00;5.22;;;;;;;7.81;65.85;101462.59;5366776;26;20012;-48
2024/04/22 09:10:22;;;;;;;5.47;3.70;;;;;;;7.83;65.92;101453.19;5361624;26;20016;-48
2024/04/22 09:13:09;;;;;;;9.05;4.47;;;;;;;7.86;65.61;101463.59;5355870;26;20205;-48
2024/04/22 09:15:36;;;;;;;8.52;4.43;;;;;;;7.88;65.41;101456.81;5366169;26;20004;-47
2024/04/22 09:18:11;;;;;;;6.55;3.83;;;;;;;7.93;65.91;101460.41;5366232;26;20364;-47
2024/04/22 09:20:39;;;;;;;7.57;4.35;;;;;;;8.01;65.81;101452.91;5364292;26;20442;-47
2024/04/22 09:23:07;;;;;;;7.75;4.32;;;;;;;8.05;65.67;101448.69;5372414;26;20004;-50
2024/04/22 09:25:34;;;;;;;8.38;2.58;;;;;;;8.04;66.01;101449.53;5370096;26;20570;-47
2024/04/22 09:28:02;;;;;;;10.40;4.90;;;;;;;8.05;65.99;101446.13;5371135;26;20560;-47
2024/04/22 09:30:38;;;;;;;7.30;4.13;;;;;;;8.05;65.57;101448.69;5365154;26;20004;-49
2024/04/22 09:33:09;;;;;;;9.45;4.75;;;;;;;8.09;65.74;101446.28;5357886;26;20016;-46
2024/04/22 09:35:38;;;;;;;7.72;4.50;;;;;;;8.14;65.67;101443.81;5365200;26;20023;-49
2024/04/22 09:38:09;;;;;;;7.28;4.35;;;;;;;8.16;65.72;101452.47;5345522;26;20001;-47
2024/04/22 09:40:39;;;;;;;10.48;4.22;;;;;;;8.20;65.64;101444.00;5358442;26;20012;-47
2024/04/22 09:43:07;;;;;;;9.02;3.05;;;;;;;8.28;65.97;101451.09;5369040;26;20421;-45
2024/04/22 09:45:34;;;;;;;8.38;4.45;;;;;;;8.34;65.92;101446.09;5365598;26;20493;-47
2024/04/22 09:48:04;;;;;;;7.85;5.18;;;;;;;8.40;65.68;101435.97;5367239;26;20020;-47
2024/04/22 09:50:32;;;;;;;9.18;5.00;;;;;;;8.48;65.78;101439.63;5373226;26;20008;-47
2024/04/22 09:52:59;;;;;;;6.93;3.72;;;;;;;8.55;65.29;101439.84;5365707;26;20011;-47
2024/04/22 09:55:30;;;;;;;10.23;4.43;;;;;;;8.59;65.83;101436.50;5367871;26;20008;-48
2024/04/22 09:58:00;;;;;;;6.97;3.75;;;;;;;8.66;65.57;101435.84;5360990;26;20070;-49
2024/04/22 10:00:27;;;;;;;7.95;5.88;;;;;;;8.76;65.52;101433.50;5351555;26;20073;-50
2024/04/22 10:02:54;;;;;;;12.02;2.83;;;;;;;8.84;65.60;101437.16;5358248;26;20393;-50
2024/04/22 10:05:22;;;;;;;8.60;4.75;;;;;;;8.91;65.61;101433.91;5367064;26;20000;-45
2024/04/22 10:07:49;;;;;;;10.25;5.28;;;;;;;8.96;65.39;101427.19;5365943;26;20004;-47
2024/04/22 10:10:18;;;;;;;7.78;5.10;;;;;;;8.98;65.56;101425.50;5370938;26;20043;-51
2024/04/22 10:12:45;;;;;;;11.77;5.60;;;;;;;9.02;65.47;101426.44;5382278;26;20015;-47
2024/04/22 10:15:14;;;;;;;6.55;4.70;;;;;;;9.04;65.49;101429.94;5366730;26;20015;-49
2024/04/22 10:17:43;;;;;;;8.15;4.45;;;;;;;8.97;65.36;101418.59;5356917;26;20070;-49
2024/04/22 10:20:11;;;;;;;6.30;4.50;;;;;;;8.95;65.18;101425.41;5357629;26;20007;-49
2024/04/22 10:22:38;;;;;;;6.93;4.35;;;;;;;8.94;65.53;101420.19;5352893;26;20120;-51
2024/04/22 10:25:08;;;;;;;7.70;4.85;;;;;;;8.93;65.89;101424.50;5355534;26;20004;-47
2024/04/22 10:27:35;;;;;;;10.40;4.72;;;;;;;8.91;65.53;101418.41;5355292;26;20098;-50
2024/04/22 10:30:03;;;;;;;6.65;4.78;;;;;;;8.91;65.74;101418.41;5343934;26;20036;-48
2024/04/22 10:32:34;;;;;;;6.22;4.45;;;;;;;8.89;65.79;101422.69;5352956;26;20078;-45
2024/04/22 10:35:01;;;;;;;8.52;4.80;;;;;;;8.90;65.67;101419.25;5352003;26;20008;-47
2024/04/22 10:37:28;;;;;;;7.47;4.85;;;;;;;8.90;65.82;101415.78;5356333;26;20005;-46
2024/04/22 10:39:55;;;;;;;7.80;4.78;;;;;;;8.91;65.56;101418.41;5360521;26;20012;-46
2024/04/22 10:42:24;;;;;;;8.75;5.03;;;;;;;8.94;65.45;101418.50;5353437;26;20746;-47
2024/04/22 10:44:52;;;;;;;7.93;5.28;;;;;;;8.97;65.96;101407.38;5352028;26;20030;-48
2024/04/22 10:47:19;;;;;;;7.55;5.05;;;;;;;8.99;65.69;101414.31;5356855;26;20020;-46
2024/04/22 10:49:46;;;;;;;10.20;5.28;;;;;;;9.02;65.67;101420.41;5356092;26;20945;-48
2024/04/22 10:52:13;;;;;;;11.77;5.60;;;;;;;9.06;65.80;101411.91;5361945;26;20000;-48
2024/04/22 10:54:40;;;;;;;11.07;5.57;;;;;;;9.08;65.56;101405.03;5356701;26;20000;-47
2024/04/22 10:57:08;;;;;;;8.82;4.03;;;;;;;9.13;65.47;101408.66;5358373;26;19997;-46
2024/04/22 10:59:35;;;;;;;9.40;4.25;;;;;;;9.17;65.59;101400.13;5346857;26;20413;-45
2024/04/22 11:02:02;;;;;;;7.30;4.10;;;;;;;9.25;65.88;101398.59;5353140;26;20026;-49
2024/04/22 11:04:30;;;;;;;13.20;5.18;;;;;;;9.30;65.02;101400.44;5342958;26;20086;-51
2024/04/22 11:06:57;;;;;;;7.18;3.92;;;;;;;9.33;65.58;101400.50;5351363;26;20458;-50
2024/04/22 11:09:24;;;;;;;7.63;4.15;;;;;;;9.34;65.13;101391.91;5356893;26;20075;-46
2024/04/22 11:11:52;;;;;;;6.75;4.18;;;;;;;9.37;65.46;101391.97;5357843;26;20453;-46
2024/04/22 11:14:19;;;;;;;28.88;8.88;;;;;;;9.39;65.19;101390.28;5352896;26;20022;-51
2024/04/22 11:16:46;;;;;;;9.27;5.07;;;;;;;9.42;65.01;101385.19;5351876;26;20019;-48
2024/04/22 11:19:13;;;;;;;5.85;4.03;;;;;;;9.50;65.52;101378.47;5361631;26;20032;-48
2024/04/22 11:21:39;;;;;;;6.97;4.05;;;;;;;9.57;65.37;101370.88;5356053;26;20019;-45
2024/04/22 11:24:07;;;;;;;4.72;3.85;;;;;;;9.61;64.91;101375.28;5358977;26;20015;-48
2024/04/22 11:26:37;;;;;;;6.85;3.38;;;;;;;9.62;64.54;101377.03;5356244;26;20008;-47
2024/04/22 11:29:05;;;;;;;13.55;5.35;;;;;;;9.64;64.56;101372.78;5360160;26;20018;-46
2024/04/22 11:31:33;;;;;;;6.13;3.95;;;;;;;9.67;64.66;101370.25;5359472;26;20013;-47
2024/04/22 11:34:00;;;;;;;6.18;3.53;;;;;;;9.69;64.75;101363.38;5361370;26;20083;-47
2024/04/22 11:36:33;;;;;;;6.60;3.97;;;;;;;9.71;64.67;101361.72;5352208;26;20009;-45
2024/04/22 11:39:16;;;;;;;6.82;4.03;;;;;;;9.75;64.56;101358.34;5328313;26;20080;-50